sensor_id;sensor_type;location;lat;lon;timestamp;P1;durP1;ratioP1;P2;durP2;ratioP2
33270;SDS011;53180;51.344;6.152;2023-04-06T00:00:30;5.25;;;4.75;;
33270;SDS011;53180;51.344;6.152;2023-04-06T00:02:58;5.85;;;5.35;;
33270;SDS011;53180;51.344;6.152;2023-04-06T00:05:26;6.00;;;5.40;;
33270;SDS011;53180;51.344;6.152;2023-04-06T00:07:57;5.47;;;5.07;;
33270;SDS011;53180;51.344;6.152;2023-04-06T00:10:25;6.18;;;5.38;;
33270;SDS011;53180;51.344;6.152;2023-04-06T00:12:54;5.93;;;5.35;;
33270;SDS011;53180;51.344;6.152;2023-04-06T00:15:23;6.03;;;5.43;;
33270;SDS011;53180;51.344;6.152;2023-04-06T00:17:53;5.20;;;4.80;;
33270;SDS011;53180;51.344;6.152;2023-04-06T00:20:22;6.35;;;5.85;;
33270;SDS011;53180;51.344;6.152;2023-04-06T00:22:51;6.57;;;5.70;;
33270;SDS011;53180;51.344;6.152;2023-04-06T00:25:20;6.50;;;5.95;;
33270;SDS011;53180;51.344;6.152;2023-04-06T00:27:48;6.40;;;5.80;;
33270;SDS011;53180;51.344;6.152;2023-04-06T00:30:17;5.78;;;5.38;;
33270;SDS011;53180;51.344;6.152;2023-04-06T00:32:45;5.72;;;5.32;;
33270;SDS011;53180;51.344;6.152;2023-04-06T00:35:15;6.82;;;6.22;;
33270;SDS011;53180;51.344;6.152;2023-04-06T00:37:45;6.15;;;5.65;;
33270;SDS011;53180;51.344;6.152;2023-04-06T00:40:15;5.30;;;4.90;;
33270;SDS011;53180;51.344;6.152;2023-04-06T00:42:43;5.78;;;5.28;;
33270;SDS011;53180;51.344;6.152;2023-04-06T00:45:12;5.53;;;5.13;;
33270;SDS011;53180;51.344;6.152;2023-04-06T00:47:40;5.93;;;5.43;;
33270;SDS011;53180;51.344;6.152;2023-04-06T00:50:09;6.38;;;5.88;;
33270;SDS011;53180;51.344;6.152;2023-04-06T00:52:39;5.68;;;5.18;;
33270;SDS011;53180;51.344;6.152;2023-04-06T00:55:08;5.43;;;5.00;;
33270;SDS011;53180;51.344;6.152;2023-04-06T00:57:36;10.75;;;5.90;;
33270;SDS011;53180;51.344;6.152;2023-04-06T01:00:05;6.50;;;5.53;;
33270;SDS011;53180;51.344;6.152;2023-04-06T01:02:35;5.72;;;5.28;;
33270;SDS011;53180;51.344;6.152;2023-04-06T01:05:04;6.22;;;5.63;;
33270;SDS011;53180;51.344;6.152;2023-04-06T01:07:34;5.55;;;5.15;;
33270;SDS011;53180;51.344;6.152;2023-04-06T01:10:04;6.30;;;5.75;;
33270;SDS011;53180;51.344;6.152;2023-04-06T01:12:34;6.38;;;5.80;;
33270;SDS011;53180;51.344;6.152;2023-04-06T01:15:04;6.40;;;5.90;;
33270;SDS011;53180;51.344;6.152;2023-04-06T01:17:33;6.15;;;5.68;;
33270;SDS011;53180;51.344;6.152;2023-04-06T01:20:01;6.35;;;5.85;;
33270;SDS011;53180;51.344;6.152;2023-04-06T01:22:32;5.82;;;5.43;;
33270;SDS011;53180;51.344;6.152;2023-04-06T01:25:00;6.30;;;5.78;;
33270;SDS011;53180;51.344;6.152;2023-04-06T01:27:28;6.32;;;5.82;;
33270;SDS011;53180;51.344;6.152;2023-04-06T01:29:57;5.53;;;5.13;;
33270;SDS011;53180;51.344;6.152;2023-04-06T01:32:25;7.03;;;6.43;;
33270;SDS011;53180;51.344;6.152;2023-04-06T01:34:54;6.57;;;6.10;;
33270;SDS011;53180;51.344;6.152;2023-04-06T01:37:22;6.10;;;5.60;;
33270;SDS011;53180;51.344;6.152;2023-04-06T01:39:52;6.05;;;5.57;;
33270;SDS011;53180;51.344;6.152;2023-04-06T01:42:21;7.28;;;6.63;;
33270;SDS011;53180;51.344;6.152;2023-04-06T01:44:49;6.60;;;6.07;;
33270;SDS011;53180;51.344;6.152;2023-04-06T01:47:19;6.78;;;6.20;;
33270;SDS011;53180;51.344;6.152;2023-04-06T01:49:47;6.95;;;6.28;;
33270;SDS011;53180;51.344;6.152;2023-04-06T01:52:15;6.53;;;5.93;;
33270;SDS011;53180;51.344;6.152;2023-04-06T01:54:44;6.57;;;5.97;;
33270;SDS011;53180;51.344;6.152;2023-04-06T01:57:13;6.60;;;6.15;;
33270;SDS011;53180;51.344;6.152;2023-04-06T01:59:42;6.82;;;6.22;;
33270;SDS011;53180;51.344;6.152;2023-04-06T02:02:10;5.80;;;5.40;;
33270;SDS011;53180;51.344;6.152;2023-04-06T02:04:39;7.47;;;6.78;;
33270;SDS011;53180;51.344;6.152;2023-04-06T02:07:08;7.43;;;6.75;;
33270;SDS011;53180;51.344;6.152;2023-04-06T02:09:37;6.63;;;6.13;;
33270;SDS011;53180;51.344;6.152;2023-04-06T02:12:05;6.80;;;6.25;;
33270;SDS011;53180;51.344;6.152;2023-04-06T02:14:35;6.57;;;5.90;;
33270;SDS011;53180;51.344;6.152;2023-04-06T02:17:03;7.38;;;6.78;;
33270;SDS011;53180;51.344;6.152;2023-04-06T02:19:31;7.15;;;6.55;;
33270;SDS011;53180;51.344;6.152;2023-04-06T02:22:00;6.65;;;6.05;;
33270;SDS011;53180;51.344;6.152;2023-04-06T02:24:28;6.35;;;5.75;;
33270;SDS011;53180;51.344;6.152;2023-04-06T02:26:56;7.22;;;6.63;;
33270;SDS011;53180;51.344;6.152;2023-04-06T02:29:26;7.55;;;6.93;;
33270;SDS011;53180;51.344;6.152;2023-04-06T02:31:56;6.75;;;6.15;;
33270;SDS011;53180;51.344;6.152;2023-04-06T02:34:24;6.40;;;5.80;;
33270;SDS011;53180;51.344;6.152;2023-04-06T02:36:53;6.32;;;5.72;;
33270;SDS011;53180;51.344;6.152;2023-04-06T02:39:22;9.57;;;6.47;;
33270;SDS011;53180;51.344;6.152;2023-04-06T02:41:50;6.60;;;6.00;;
33270;SDS011;53180;51.344;6.152;2023-04-06T02:44:19;5.53;;;5.13;;
33270;SDS011;53180;51.344;6.152;2023-04-06T02:46:47;7.07;;;6.38;;
33270;SDS011;53180;51.344;6.152;2023-04-06T02:49:18;6.47;;;6.00;;
33270;SDS011;53180;51.344;6.152;2023-04-06T02:51:46;6.38;;;5.88;;
33270;SDS011;53180;51.344;6.152;2023-04-06T02:54:15;6.63;;;6.07;;
33270;SDS011;53180;51.344;6.152;2023-04-06T02:56:44;6.13;;;5.63;;
33270;SDS011;53180;51.344;6.152;2023-04-06T02:59:12;7.20;;;6.30;;
33270;SDS011;53180;51.344;6.152;2023-04-06T03:01:41;6.00;;;5.60;;
33270;SDS011;53180;51.344;6.152;2023-04-06T03:04:09;6.40;;;5.90;;
33270;SDS011;53180;51.344;6.152;2023-04-06T03:06:40;7.28;;;6.75;;
33270;SDS011;53180;51.344;6.152;2023-04-06T03:09:08;7.68;;;7.05;;
33270;SDS011;53180;51.344;6.152;2023-04-06T03:11:37;7.25;;;6.65;;
33270;SDS011;53180;51.344;6.152;2023-04-06T03:14:05;7.10;;;6.53;;
33270;SDS011;53180;51.344;6.152;2023-04-06T03:16:34;6.97;;;6.30;;
33270;SDS011;53180;51.344;6.152;2023-04-06T03:19:02;7.38;;;6.78;;
33270;SDS011;53180;51.344;6.152;2023-04-06T03:21:31;6.45;;;5.95;;
33270;SDS011;53180;51.344;6.152;2023-04-06T03:24:01;7.55;;;6.85;;
33270;SDS011;53180;51.344;6.152;2023-04-06T03:26:29;6.10;;;5.70;;
33270;SDS011;53180;51.344;6.152;2023-04-06T03:28:57;7.30;;;6.72;;
33270;SDS011;53180;51.344;6.152;2023-04-06T03:31:25;7.35;;;6.75;;
33270;SDS011;53180;51.344;6.152;2023-04-06T03:33:54;7.35;;;6.65;;
33270;SDS011;53180;51.344;6.152;2023-04-06T03:36:22;12.48;;;7.53;;
33270;SDS011;53180;51.344;6.152;2023-04-06T03:38:51;8.05;;;7.35;;
33270;SDS011;53180;51.344;6.152;2023-04-06T03:41:22;6.75;;;6.25;;
33270;SDS011;53180;51.344;6.152;2023-04-06T03:43:50;7.00;;;6.38;;
33270;SDS011;53180;51.344;6.152;2023-04-06T03:46:18;7.22;;;6.60;;
33270;SDS011;53180;51.344;6.152;2023-04-06T03:48:48;7.20;;;6.55;;
33270;SDS011;53180;51.344;6.152;2023-04-06T03:51:16;6.13;;;5.63;;
33270;SDS011;53180;51.344;6.152;2023-04-06T03:53:44;7.03;;;6.38;;
33270;SDS011;53180;51.344;6.152;2023-04-06T03:56:13;7.10;;;6.40;;
33270;SDS011;53180;51.344;6.152;2023-04-06T03:58:43;6.60;;;6.07;;
33270;SDS011;53180;51.344;6.152;2023-04-06T04:01:11;6.67;;;6.17;;
33270;SDS011;53180;51.344;6.152;2023-04-06T04:03:40;7.00;;;6.32;;
33270;SDS011;53180;51.344;6.152;2023-04-06T04:06:08;7.80;;;7.00;;
33270;SDS011;53180;51.344;6.152;2023-04-06T04:08:37;6.75;;;6.15;;
33270;SDS011;53180;51.344;6.152;2023-04-06T04:11:05;6.82;;;6.22;;
33270;SDS011;53180;51.344;6.152;2023-04-06T04:13:33;12.60;;;6.65;;
33270;SDS011;53180;51.344;6.152;2023-04-06T04:16:03;7.40;;;6.63;;
33270;SDS011;53180;51.344;6.152;2023-04-06T04:18:32;7.63;;;6.90;;
33270;SDS011;53180;51.344;6.152;2023-04-06T04:21:00;7.43;;;6.68;;
33270;SDS011;53180;51.344;6.152;2023-04-06T04:23:28;20.45;;;13.55;;
33270;SDS011;53180;51.344;6.152;2023-04-06T04:25:57;33.38;;;19.98;;
33270;SDS011;53180;51.344;6.152;2023-04-06T04:28:25;7.72;;;7.05;;
33270;SDS011;53180;51.344;6.152;2023-04-06T04:30:53;6.35;;;5.85;;
33270;SDS011;53180;51.344;6.152;2023-04-06T04:33:23;7.38;;;6.50;;
33270;SDS011;53180;51.344;6.152;2023-04-06T04:35:51;7.85;;;7.15;;
33270;SDS011;53180;51.344;6.152;2023-04-06T04:38:20;7.85;;;6.18;;
33270;SDS011;53180;51.344;6.152;2023-04-06T04:40:48;7.97;;;7.25;;
33270;SDS011;53180;51.344;6.152;2023-04-06T04:43:16;7.00;;;6.30;;
33270;SDS011;53180;51.344;6.152;2023-04-06T04:45:45;7.45;;;6.72;;
33270;SDS011;53180;51.344;6.152;2023-04-06T04:48:13;6.80;;;6.22;;
33270;SDS011;53180;51.344;6.152;2023-04-06T04:50:43;7.43;;;6.80;;
33270;SDS011;53180;51.344;6.152;2023-04-06T04:53:11;7.55;;;6.80;;
33270;SDS011;53180;51.344;6.152;2023-04-06T04:55:39;6.88;;;6.22;;
33270;SDS011;53180;51.344;6.152;2023-04-06T04:58:08;7.20;;;6.55;;
33270;SDS011;53180;51.344;6.152;2023-04-06T05:00:40;8.52;;;7.03;;
33270;SDS011;53180;51.344;6.152;2023-04-06T05:03:11;8.30;;;6.80;;
33270;SDS011;53180;51.344;6.152;2023-04-06T05:05:48;7.63;;;6.93;;
33270;SDS011;53180;51.344;6.152;2023-04-06T05:08:16;7.63;;;6.80;;
33270;SDS011;53180;51.344;6.152;2023-04-06T05:10:44;10.77;;;7.75;;
33270;SDS011;53180;51.344;6.152;2023-04-06T05:13:14;8.10;;;7.18;;
33270;SDS011;53180;51.344;6.152;2023-04-06T05:15:42;9.25;;;6.55;;
33270;SDS011;53180;51.344;6.152;2023-04-06T05:18:11;7.55;;;5.85;;
33270;SDS011;53180;51.344;6.152;2023-04-06T05:20:42;7.80;;;6.05;;
33270;SDS011;53180;51.344;6.152;2023-04-06T05:23:12;10.27;;;6.65;;
33270;SDS011;53180;51.344;6.152;2023-04-06T05:25:40;7.68;;;6.47;;
33270;SDS011;53180;51.344;6.152;2023-04-06T05:28:09;6.22;;;5.63;;
33270;SDS011;53180;51.344;6.152;2023-04-06T05:30:40;7.55;;;6.72;;
33270;SDS011;53180;51.344;6.152;2023-04-06T05:33:09;6.75;;;5.85;;
33270;SDS011;53180;51.344;6.152;2023-04-06T05:35:38;7.78;;;6.32;;
33270;SDS011;53180;51.344;6.152;2023-04-06T05:38:07;6.32;;;5.72;;
33270;SDS011;53180;51.344;6.152;2023-04-06T05:40:37;7.47;;;6.72;;
33270;SDS011;53180;51.344;6.152;2023-04-06T05:43:07;6.50;;;5.60;;
33270;SDS011;53180;51.344;6.152;2023-04-06T05:45:36;7.20;;;6.43;;
33270;SDS011;53180;51.344;6.152;2023-04-06T05:48:05;6.15;;;5.57;;
33270;SDS011;53180;51.344;6.152;2023-04-06T05:50:33;10.32;;;6.65;;
33270;SDS011;53180;51.344;6.152;2023-04-06T05:53:01;10.60;;;5.90;;
33270;SDS011;53180;51.344;6.152;2023-04-06T05:55:30;8.15;;;6.13;;
33270;SDS011;53180;51.344;6.152;2023-04-06T05:58:00;7.78;;;5.70;;
33270;SDS011;53180;51.344;6.152;2023-04-06T06:00:28;8.07;;;6.57;;
33270;SDS011;53180;51.344;6.152;2023-04-06T06:02:56;6.32;;;5.68;;
33270;SDS011;53180;51.344;6.152;2023-04-06T06:05:25;6.55;;;5.40;;
33270;SDS011;53180;51.344;6.152;2023-04-06T06:07:53;7.72;;;5.90;;
33270;SDS011;53180;51.344;6.152;2023-04-06T06:10:21;6.90;;;5.90;;
33270;SDS011;53180;51.344;6.152;2023-04-06T06:12:50;6.10;;;5.45;;
33270;SDS011;53180;51.344;6.152;2023-04-06T06:15:20;11.75;;;6.13;;
33270;SDS011;53180;51.344;6.152;2023-04-06T06:17:48;7.10;;;5.80;;
33270;SDS011;53180;51.344;6.152;2023-04-06T06:20:16;12.68;;;6.38;;
33270;SDS011;53180;51.344;6.152;2023-04-06T06:22:45;7.70;;;5.25;;
33270;SDS011;53180;51.344;6.152;2023-04-06T06:25:13;6.03;;;5.43;;
33270;SDS011;53180;51.344;6.152;2023-04-06T06:27:42;8.57;;;5.60;;
33270;SDS011;53180;51.344;6.152;2023-04-06T06:30:11;6.32;;;5.68;;
33270;SDS011;53180;51.344;6.152;2023-04-06T06:32:41;9.40;;;6.10;;
33270;SDS011;53180;51.344;6.152;2023-04-06T06:35:10;12.30;;;5.93;;
33270;SDS011;53180;51.344;6.152;2023-04-06T06:37:38;8.95;;;7.35;;
33270;SDS011;53180;51.344;6.152;2023-04-06T06:40:08;7.05;;;6.20;;
33270;SDS011;53180;51.344;6.152;2023-04-06T06:42:39;6.72;;;5.90;;
33270;SDS011;53180;51.344;6.152;2023-04-06T06:45:08;7.30;;;5.53;;
33270;SDS011;53180;51.344;6.152;2023-04-06T06:47:37;9.85;;;6.45;;
33270;SDS011;53180;51.344;6.152;2023-04-06T06:50:07;9.73;;;6.45;;
33270;SDS011;53180;51.344;6.152;2023-04-06T06:52:36;9.48;;;5.88;;
33270;SDS011;53180;51.344;6.152;2023-04-06T06:55:05;9.35;;;5.75;;
33270;SDS011;53180;51.344;6.152;2023-04-06T06:57:34;10.50;;;5.90;;
33270;SDS011;53180;51.344;6.152;2023-04-06T07:00:03;10.23;;;6.47;;
33270;SDS011;53180;51.344;6.152;2023-04-06T07:02:34;7.68;;;6.05;;
33270;SDS011;53180;51.344;6.152;2023-04-06T07:05:03;6.13;;;5.20;;
33270;SDS011;53180;51.344;6.152;2023-04-06T07:07:53;8.57;;;5.57;;
33270;SDS011;53180;51.344;6.152;2023-04-06T07:10:21;10.15;;;6.40;;
33270;SDS011;53180;51.344;6.152;2023-04-06T07:12:50;17.27;;;6.20;;
33270;SDS011;53180;51.344;6.152;2023-04-06T07:15:18;10.80;;;5.35;;
33270;SDS011;53180;51.344;6.152;2023-04-06T07:17:47;6.63;;;5.63;;
33270;SDS011;53180;51.344;6.152;2023-04-06T07:20:15;9.05;;;5.72;;
33270;SDS011;53180;51.344;6.152;2023-04-06T07:22:44;10.13;;;5.88;;
33270;SDS011;53180;51.344;6.152;2023-04-06T07:25:13;8.55;;;5.60;;
33270;SDS011;53180;51.344;6.152;2023-04-06T07:27:42;8.20;;;5.00;;
33270;SDS011;53180;51.344;6.152;2023-04-06T07:30:11;9.88;;;6.10;;
33270;SDS011;53180;51.344;6.152;2023-04-06T07:32:39;7.75;;;5.00;;
33270;SDS011;53180;51.344;6.152;2023-04-06T07:35:08;9.30;;;5.47;;
33270;SDS011;53180;51.344;6.152;2023-04-06T07:37:37;9.13;;;5.38;;
33270;SDS011;53180;51.344;6.152;2023-04-06T07:40:05;7.35;;;4.68;;
33270;SDS011;53180;51.344;6.152;2023-04-06T07:42:36;6.60;;;5.28;;
33270;SDS011;53180;51.344;6.152;2023-04-06T07:45:05;7.43;;;5.40;;
33270;SDS011;53180;51.344;6.152;2023-04-06T07:47:34;11.35;;;5.70;;
33270;SDS011;53180;51.344;6.152;2023-04-06T07:50:03;8.43;;;5.53;;
33270;SDS011;53180;51.344;6.152;2023-04-06T07:52:32;7.90;;;5.30;;
33270;SDS011;53180;51.344;6.152;2023-04-06T07:55:03;10.07;;;5.95;;
33270;SDS011;53180;51.344;6.152;2023-04-06T07:57:32;4.88;;;4.25;;
33270;SDS011;53180;51.344;6.152;2023-04-06T08:00:02;7.68;;;5.43;;
33270;SDS011;53180;51.344;6.152;2023-04-06T08:02:32;9.43;;;5.78;;
33270;SDS011;53180;51.344;6.152;2023-04-06T08:05:01;9.77;;;5.53;;
33270;SDS011;53180;51.344;6.152;2023-04-06T08:07:29;9.15;;;5.10;;
33270;SDS011;53180;51.344;6.152;2023-04-06T08:09:58;8.10;;;5.38;;
33270;SDS011;53180;51.344;6.152;2023-04-06T08:12:26;9.73;;;4.70;;
33270;SDS011;53180;51.344;6.152;2023-04-06T08:14:54;13.60;;;5.05;;
33270;SDS011;53180;51.344;6.152;2023-04-06T08:17:24;6.85;;;5.05;;
33270;SDS011;53180;51.344;6.152;2023-04-06T08:19:56;9.95;;;5.90;;
33270;SDS011;53180;51.344;6.152;2023-04-06T08:22:25;11.60;;;5.03;;
33270;SDS011;53180;51.344;6.152;2023-04-06T08:24:53;8.75;;;5.63;;
33270;SDS011;53180;51.344;6.152;2023-04-06T08:27:21;9.55;;;5.22;;
33270;SDS011;53180;51.344;6.152;2023-04-06T08:29:50;14.40;;;5.53;;
33270;SDS011;53180;51.344;6.152;2023-04-06T08:32:18;8.10;;;5.43;;
33270;SDS011;53180;51.344;6.152;2023-04-06T08:34:48;9.50;;;4.95;;
33270;SDS011;53180;51.344;6.152;2023-04-06T08:37:16;7.63;;;5.60;;
33270;SDS011;53180;51.344;6.152;2023-04-06T08:39:44;8.93;;;5.15;;
33270;SDS011;53180;51.344;6.152;2023-04-06T08:44:47;11.70;;;5.30;;
33270;SDS011;53180;51.344;6.152;2023-04-06T08:47:17;12.48;;;5.15;;
33270;SDS011;53180;51.344;6.152;2023-04-06T08:49:51;7.32;;;5.03;;
33270;SDS011;53180;51.344;6.152;2023-04-06T08:54:50;15.20;;;4.32;;
33270;SDS011;53180;51.344;6.152;2023-04-06T08:57:18;25.00;;;12.48;;
33270;SDS011;53180;51.344;6.152;2023-04-06T08:59:47;10.80;;;5.68;;
33270;SDS011;53180;51.344;6.152;2023-04-06T09:02:17;8.40;;;4.97;;
33270;SDS011;53180;51.344;6.152;2023-04-06T09:04:47;9.48;;;4.95;;
33270;SDS011;53180;51.344;6.152;2023-04-06T09:07:18;14.70;;;4.97;;
33270;SDS011;53180;51.344;6.152;2023-04-06T09:09:46;10.90;;;5.03;;
33270;SDS011;53180;51.344;6.152;2023-04-06T09:12:24;7.95;;;4.75;;
33270;SDS011;53180;51.344;6.152;2023-04-06T09:14:54;7.72;;;4.70;;
33270;SDS011;53180;51.344;6.152;2023-04-06T09:17:24;8.27;;;5.20;;
33270;SDS011;53180;51.344;6.152;2023-04-06T09:19:54;5.90;;;3.67;;
33270;SDS011;53180;51.344;6.152;2023-04-06T09:22:24;7.03;;;4.70;;
33270;SDS011;53180;51.344;6.152;2023-04-06T09:24:54;8.23;;;4.95;;
33270;SDS011;53180;51.344;6.152;2023-04-06T09:27:32;7.90;;;4.15;;
33270;SDS011;53180;51.344;6.152;2023-04-06T09:30:04;6.82;;;3.53;;
33270;SDS011;53180;51.344;6.152;2023-04-06T09:32:43;6.22;;;4.05;;
33270;SDS011;53180;51.344;6.152;2023-04-06T09:35:16;8.98;;;5.15;;
33270;SDS011;53180;51.344;6.152;2023-04-06T09:37:48;8.50;;;3.60;;
33270;SDS011;53180;51.344;6.152;2023-04-06T09:40:17;7.35;;;4.68;;
33270;SDS011;53180;51.344;6.152;2023-04-06T09:42:48;6.18;;;4.47;;
33270;SDS011;53180;51.344;6.152;2023-04-06T09:45:18;12.30;;;5.28;;
33270;SDS011;53180;51.344;6.152;2023-04-06T09:47:47;8.50;;;4.78;;
33270;SDS011;53180;51.344;6.152;2023-04-06T09:50:18;8.25;;;4.68;;
33270;SDS011;53180;51.344;6.152;2023-04-06T09:52:48;10.38;;;4.47;;
33270;SDS011;53180;51.344;6.152;2023-04-06T09:55:22;10.15;;;4.82;;
33270;SDS011;53180;51.344;6.152;2023-04-06T09:57:57;8.95;;;4.88;;
33270;SDS011;53180;51.344;6.152;2023-04-06T10:00:32;11.20;;;5.68;;
33270;SDS011;53180;51.344;6.152;2023-04-06T10:03:13;13.27;;;5.28;;
33270;SDS011;53180;51.344;6.152;2023-04-06T10:05:54;9.68;;;4.97;;
33270;SDS011;53180;51.344;6.152;2023-04-06T10:08:27;11.68;;;5.88;;
33270;SDS011;53180;51.344;6.152;2023-04-06T10:10:58;9.77;;;4.57;;
33270;SDS011;53180;51.344;6.152;2023-04-06T10:13:28;11.32;;;5.43;;
33270;SDS011;53180;51.344;6.152;2023-04-06T10:15:56;11.57;;;4.97;;
33270;SDS011;53180;51.344;6.152;2023-04-06T10:20:57;10.32;;;4.75;;
33270;SDS011;53180;51.344;6.152;2023-04-06T10:23:32;8.18;;;4.68;;
33270;SDS011;53180;51.344;6.152;2023-04-06T10:26:03;17.50;;;5.32;;
33270;SDS011;53180;51.344;6.152;2023-04-06T10:28:32;10.18;;;4.50;;
33270;SDS011;53180;51.344;6.152;2023-04-06T10:31:04;5.85;;;2.95;;
33270;SDS011;53180;51.344;6.152;2023-04-06T10:33:33;8.77;;;4.57;;
33270;SDS011;53180;51.344;6.152;2023-04-06T10:36:11;7.90;;;4.30;;
33270;SDS011;53180;51.344;6.152;2023-04-06T10:38:42;7.43;;;4.45;;
33270;SDS011;53180;51.344;6.152;2023-04-06T10:41:11;10.57;;;4.82;;
33270;SDS011;53180;51.344;6.152;2023-04-06T10:43:40;8.63;;;4.82;;
33270;SDS011;53180;51.344;6.152;2023-04-06T10:46:09;6.43;;;4.47;;
33270;SDS011;53180;51.344;6.152;2023-04-06T10:48:38;7.75;;;4.50;;
33270;SDS011;53180;51.344;6.152;2023-04-06T10:51:11;8.00;;;4.30;;
33270;SDS011;53180;51.344;6.152;2023-04-06T10:53:43;6.28;;;3.85;;
33270;SDS011;53180;51.344;6.152;2023-04-06T10:56:15;6.20;;;3.65;;
33270;SDS011;53180;51.344;6.152;2023-04-06T10:58:44;6.22;;;4.07;;
33270;SDS011;53180;51.344;6.152;2023-04-06T11:01:14;7.70;;;3.80;;
33270;SDS011;53180;51.344;6.152;2023-04-06T11:03:44;4.67;;;2.83;;
33270;SDS011;53180;51.344;6.152;2023-04-06T11:06:17;10.57;;;4.38;;
33270;SDS011;53180;51.344;6.152;2023-04-06T11:08:48;7.85;;;3.72;;
33270;SDS011;53180;51.344;6.152;2023-04-06T11:11:17;6.50;;;3.30;;
33270;SDS011;53180;51.344;6.152;2023-04-06T11:13:48;12.60;;;4.53;;
33270;SDS011;53180;51.344;6.152;2023-04-06T11:16:19;7.85;;;4.15;;
33270;SDS011;53180;51.344;6.152;2023-04-06T11:18:49;6.47;;;3.83;;
33270;SDS011;53180;51.344;6.152;2023-04-06T11:21:30;6.53;;;3.75;;
33270;SDS011;53180;51.344;6.152;2023-04-06T11:24:07;5.85;;;3.78;;
33270;SDS011;53180;51.344;6.152;2023-04-06T11:26:40;6.45;;;3.15;;
33270;SDS011;53180;51.344;6.152;2023-04-06T11:29:11;6.60;;;3.38;;
33270;SDS011;53180;51.344;6.152;2023-04-06T11:31:41;6.47;;;3.35;;
33270;SDS011;53180;51.344;6.152;2023-04-06T11:34:13;6.70;;;3.88;;
33270;SDS011;53180;51.344;6.152;2023-04-06T11:36:45;6.70;;;3.75;;
33270;SDS011;53180;51.344;6.152;2023-04-06T11:39:19;5.13;;;3.60;;
33270;SDS011;53180;51.344;6.152;2023-04-06T11:41:49;4.60;;;2.83;;
33270;SDS011;53180;51.344;6.152;2023-04-06T11:44:28;5.65;;;3.40;;
33270;SDS011;53180;51.344;6.152;2023-04-06T11:47:00;5.47;;;3.00;;
33270;SDS011;53180;51.344;6.152;2023-04-06T11:49:29;6.30;;;3.45;;
33270;SDS011;53180;51.344;6.152;2023-04-06T11:51:59;5.03;;;2.83;;
33270;SDS011;53180;51.344;6.152;2023-04-06T11:54:33;13.07;;;2.90;;
33270;SDS011;53180;51.344;6.152;2023-04-06T11:57:04;5.50;;;3.47;;
33270;SDS011;53180;51.344;6.152;2023-04-06T11:59:33;6.90;;;3.00;;
33270;SDS011;53180;51.344;6.152;2023-04-06T12:02:02;8.18;;;3.30;;
33270;SDS011;53180;51.344;6.152;2023-04-06T12:04:31;8.45;;;3.35;;
33270;SDS011;53180;51.344;6.152;2023-04-06T12:07:00;4.25;;;3.15;;
33270;SDS011;53180;51.344;6.152;2023-04-06T12:09:30;5.28;;;2.38;;
33270;SDS011;53180;51.344;6.152;2023-04-06T12:12:02;5.32;;;2.95;;
33270;SDS011;53180;51.344;6.152;2023-04-06T12:14:31;5.25;;;3.20;;
33270;SDS011;53180;51.344;6.152;2023-04-06T12:16:59;4.03;;;2.90;;
33270;SDS011;53180;51.344;6.152;2023-04-06T12:19:27;7.22;;;2.85;;
33270;SDS011;53180;51.344;6.152;2023-04-06T12:21:57;3.95;;;2.78;;
33270;SDS011;53180;51.344;6.152;2023-04-06T12:24:27;3.60;;;2.75;;
33270;SDS011;53180;51.344;6.152;2023-04-06T12:26:56;5.32;;;3.00;;
33270;SDS011;53180;51.344;6.152;2023-04-06T12:29:35;7.95;;;2.15;;
33270;SDS011;53180;51.344;6.152;2023-04-06T12:32:04;3.53;;;3.05;;
33270;SDS011;53180;51.344;6.152;2023-04-06T12:34:32;5.50;;;3.35;;
33270;SDS011;53180;51.344;6.152;2023-04-06T12:37:01;4.82;;;3.13;;
33270;SDS011;53180;51.344;6.152;2023-04-06T12:39:29;4.03;;;3.05;;
33270;SDS011;53180;51.344;6.152;2023-04-06T12:41:59;5.65;;;3.70;;
33270;SDS011;53180;51.344;6.152;2023-04-06T12:44:29;4.45;;;3.20;;
33270;SDS011;53180;51.344;6.152;2023-04-06T12:46:57;4.07;;;2.97;;
33270;SDS011;53180;51.344;6.152;2023-04-06T12:49:25;5.25;;;3.28;;
33270;SDS011;53180;51.344;6.152;2023-04-06T12:51:56;8.05;;;3.88;;
33270;SDS011;53180;51.344;6.152;2023-04-06T12:54:24;4.78;;;3.05;;
33270;SDS011;53180;51.344;6.152;2023-04-06T12:56:53;3.60;;;2.72;;
33270;SDS011;53180;51.344;6.152;2023-04-06T12:59:23;6.65;;;2.75;;
33270;SDS011;53180;51.344;6.152;2023-04-06T13:01:51;7.38;;;3.45;;
33270;SDS011;53180;51.344;6.152;2023-04-06T13:04:20;5.00;;;3.03;;
33270;SDS011;53180;51.344;6.152;2023-04-06T13:06:49;3.70;;;2.78;;
33270;SDS011;53180;51.344;6.152;2023-04-06T13:09:17;4.43;;;3.10;;
33270;SDS011;53180;51.344;6.152;2023-04-06T13:11:45;5.32;;;3.53;;
33270;SDS011;53180;51.344;6.152;2023-04-06T13:14:14;4.82;;;3.22;;
33270;SDS011;53180;51.344;6.152;2023-04-06T13:16:43;5.32;;;3.28;;
33270;SDS011;53180;51.344;6.152;2023-04-06T13:19:12;5.30;;;3.00;;
33270;SDS011;53180;51.344;6.152;2023-04-06T13:21:41;7.20;;;4.15;;
33270;SDS011;53180;51.344;6.152;2023-04-06T13:24:09;4.60;;;3.72;;
33270;SDS011;53180;51.344;6.152;2023-04-06T13:26:37;7.30;;;3.75;;
33270;SDS011;53180;51.344;6.152;2023-04-06T13:29:06;6.68;;;4.00;;
33270;SDS011;53180;51.344;6.152;2023-04-06T13:31:34;7.38;;;3.83;;
33270;SDS011;53180;51.344;6.152;2023-04-06T13:34:04;5.47;;;3.42;;
33270;SDS011;53180;51.344;6.152;2023-04-06T13:36:32;5.78;;;3.83;;
33270;SDS011;53180;51.344;6.152;2023-04-06T13:39:01;5.38;;;3.10;;
33270;SDS011;53180;51.344;6.152;2023-04-06T13:41:29;7.57;;;4.30;;
33270;SDS011;53180;51.344;6.152;2023-04-06T13:43:58;10.45;;;4.60;;
33270;SDS011;53180;51.344;6.152;2023-04-06T13:46:26;6.07;;;3.63;;
33270;SDS011;53180;51.344;6.152;2023-04-06T13:48:55;7.20;;;3.90;;
33270;SDS011;53180;51.344;6.152;2023-04-06T13:51:24;7.38;;;4.18;;
33270;SDS011;53180;51.344;6.152;2023-04-06T13:53:54;5.47;;;3.95;;
33270;SDS011;53180;51.344;6.152;2023-04-06T13:56:22;5.93;;;3.30;;
33270;SDS011;53180;51.344;6.152;2023-04-06T13:58:53;5.25;;;3.58;;
33270;SDS011;53180;51.344;6.152;2023-04-06T14:01:22;6.70;;;3.72;;
33270;SDS011;53180;51.344;6.152;2023-04-06T14:03:52;7.10;;;4.10;;
33270;SDS011;53180;51.344;6.152;2023-04-06T14:06:21;5.68;;;4.05;;
33270;SDS011;53180;51.344;6.152;2023-04-06T14:08:53;9.20;;;4.38;;
33270;SDS011;53180;51.344;6.152;2023-04-06T14:11:23;8.27;;;4.45;;
33270;SDS011;53180;51.344;6.152;2023-04-06T14:13:52;14.50;;;4.45;;
33270;SDS011;53180;51.344;6.152;2023-04-06T14:16:23;7.65;;;4.25;;
33270;SDS011;53180;51.344;6.152;2023-04-06T14:18:52;7.90;;;4.65;;
33270;SDS011;53180;51.344;6.152;2023-04-06T14:21:21;8.35;;;4.82;;
33270;SDS011;53180;51.344;6.152;2023-04-06T14:23:49;9.90;;;4.97;;
33270;SDS011;53180;51.344;6.152;2023-04-06T14:26:20;5.75;;;4.30;;
33270;SDS011;53180;51.344;6.152;2023-04-06T14:28:49;9.35;;;5.03;;
33270;SDS011;53180;51.344;6.152;2023-04-06T14:31:18;5.88;;;4.20;;
33270;SDS011;53180;51.344;6.152;2023-04-06T14:33:46;9.07;;;4.93;;
33270;SDS011;53180;51.344;6.152;2023-04-06T14:36:14;8.13;;;4.22;;
33270;SDS011;53180;51.344;6.152;2023-04-06T14:38:43;6.05;;;4.07;;
33270;SDS011;53180;51.344;6.152;2023-04-06T14:41:15;7.72;;;5.38;;
33270;SDS011;53180;51.344;6.152;2023-04-06T14:43:46;6.15;;;4.28;;
33270;SDS011;53180;51.344;6.152;2023-04-06T14:46:14;7.65;;;5.00;;
33270;SDS011;53180;51.344;6.152;2023-04-06T14:48:43;8.20;;;4.57;;
33270;SDS011;53180;51.344;6.152;2023-04-06T14:51:12;7.13;;;4.93;;
33270;SDS011;53180;51.344;6.152;2023-04-06T14:53:40;8.15;;;4.35;;
33270;SDS011;53180;51.344;6.152;2023-04-06T14:56:09;8.90;;;4.43;;
33270;SDS011;53180;51.344;6.152;2023-04-06T14:58:37;8.55;;;4.90;;
33270;SDS011;53180;51.344;6.152;2023-04-06T15:01:07;7.50;;;4.90;;
33270;SDS011;53180;51.344;6.152;2023-04-06T15:03:35;5.55;;;4.03;;
33270;SDS011;53180;51.344;6.152;2023-04-06T15:06:04;20.00;;;5.35;;